createdAt,value
2022-10-01T00:25:21.486Z,16
2022-10-01T00:54:45.262Z,13
2022-10-01T01:24:00.973Z,12
2022-10-01T01:53:19.394Z,9
2022-10-01T02:22:33.543Z,9
2022-10-01T02:51:49.872Z,9
2022-10-01T03:21:03.434Z,10
2022-10-01T03:50:13.734Z,9
2022-10-01T04:19:35.452Z,7
2022-10-01T04:48:44.183Z,7
2022-10-01T05:18:02.719Z,7
2022-10-01T05:47:23.090Z,7
2022-10-01T06:16:32.603Z,9
2022-10-01T06:45:39.739Z,7
2022-10-01T07:14:47.077Z,7
2022-10-01T07:44:09.627Z,6
2022-10-01T08:13:28.791Z,6
2022-10-01T08:42:47.959Z,5
2022-10-01T09:12:05.798Z,7
2022-10-01T09:41:22.038Z,4
2022-10-01T10:10:44.310Z,6
2022-10-01T10:40:09.812Z,5
2022-10-01T11:09:29.610Z,5
2022-10-01T11:38:48.767Z,4
2022-10-01T12:08:00.818Z,4
2022-10-01T12:37:16.240Z,4
2022-10-01T13:06:34.918Z,3
2022-10-01T13:35:36.800Z,5
2022-10-01T14:04:38.066Z,4
2022-10-01T14:33:47.562Z,3
2022-10-01T15:03:06.542Z,3
2022-10-01T15:32:12.083Z,3
2022-10-01T16:01:25.985Z,4
2022-10-01T16:30:39.660Z,4
2022-10-01T17:00:01.400Z,3
2022-10-01T17:29:22.127Z,4
2022-10-01T17:58:48.660Z,3
2022-10-01T18:28:09.969Z,4
2022-10-01T18:57:26.603Z,4
2022-10-01T19:26:46.977Z,4
2022-10-01T19:56:02.406Z,6
2022-10-01T20:25:13.414Z,4
2022-10-01T20:54:38.189Z,6
2022-10-01T21:23:59.843Z,7
2022-10-01T21:53:28.121Z,5
2022-10-01T22:22:07.054Z,6
2022-10-01T22:51:28.841Z,7
2022-10-01T23:20:56.666Z,5
2022-10-01T23:50:20.030Z,5
